PWSweather.com
Personal Weather Stations
Station Observations
MDHALE1
Southwest Baltimore Co., Halethorpe, MD 21227

Southwest Baltimore Co.Halethorpe, MD 21227

Lat: 39.23643, Lon: -76.696959

Elevation: 86

Station Type: Davis Vantage Pro2+

http://home.comcast.net/~halethorpe_weather/index.html

Latest ConditionsUpdated 8:15:02 PM EST Sunday, Dec 21, 2014
Currently Today's Max Today's Min Today's Average
Temperature 33.1°F0.6°C 41.7°F5.4°C 30.0°F-1.1°C 34.8°F1.6°C
Dew Point 23.0°F-5.0°C 26.2°F-3.2°C 22.2°F-5.4°C 23.4°F-4.8°C
Winds Calm Calm 4.6 mph W7.4 kmh W - 0.5 mph 0.8 kmh
Wind Gusts 1.2 mph1.9 kmh 6.9 mph11.1 kmh - -
Humidity 66% 76% 49% 63%
Pressure 30.33 in1027.1 mb 30.36 in1028.1 mb 30.27 in1025.1 mb -
Hour Temp Dew Point Humidity Winds Wind Gusts Pressure Precip Precip Rate Daily Precip Total
08:15 PM 33.1°F0.6°C 23.0°F-5.0°C 66% Calm Calm 1.2 mph1.9 kmh 30.33 in1027.1 mb 0.00 in0.0 mm 0.00 in/hr0.0 mm/hr 0.00 in0.0 mm
08:00 PM 33.4°F0.8°C 23.3°F-4.8°C 66% 1.2 mph NE1.9 kmh NE 2.3 mph3.7 kmh 30.33 in1027.1 mb 0.00 in0.0 mm 0.00 in/hr0.0 mm/hr 0.00 in0.0 mm
07:45 PM 34.0°F1.1°C 23.8°F-4.6°C 66% 3.5 mph NE5.6 kmh NE 4.6 mph7.4 kmh 30.33 in1027.1 mb 0.00 in0.0 mm 0.00 in/hr0.0 mm/hr 0.00 in0.0 mm
07:30 PM 32.7°F0.4°C 25.6°F-3.6°C 75% Calm Calm -- 30.32 in1026.8 mb 0.00 in0.0 mm 0.00 in/hr0.0 mm/hr 0.00 in0.0 mm
07:15 PM 32.9°F0.5°C 25.8°F-3.4°C 75% Calm Calm -- 30.32 in1026.8 mb 0.00 in0.0 mm 0.00 in/hr0.0 mm/hr 0.00 in0.0 mm
07:00 PM 32.9°F0.5°C 26.2°F-3.2°C 76% Calm Calm -- 30.34 in1027.4 mb 0.00 in0.0 mm 0.00 in/hr0.0 mm/hr 0.00 in0.0 mm
06:45 PM 33.3°F0.7°C 25.9°F-3.4°C 74% Calm Calm -- 30.34 in1027.4 mb 0.00 in0.0 mm 0.00 in/hr0.0 mm/hr 0.00 in0.0 mm
06:30 PM 34.3°F1.3°C 25.9°F-3.4°C 71% Calm Calm -- 30.33 in1027.1 mb 0.00 in0.0 mm 0.00 in/hr0.0 mm/hr 0.00 in0.0 mm
06:15 PM 35.7°F2.1°C 25.8°F-3.4°C 67% 1.2 mph NNE1.9 kmh NNE 2.3 mph3.7 kmh 30.32 in1026.8 mb 0.00 in0.0 mm 0.00 in/hr0.0 mm/hr 0.00 in0.0 mm
06:00 PM 35.7°F2.1°C 25.4°F-3.7°C 66% Calm Calm 3.5 mph5.6 kmh 30.31 in1026.4 mb 0.00 in0.0 mm 0.00 in/hr0.0 mm/hr 0.00 in0.0 mm
05:45 PM 36.1°F2.3°C 24.7°F-4.1°C 63% 1.2 mph NNE1.9 kmh NNE 3.5 mph5.6 kmh 30.30 in1026.1 mb 0.00 in0.0 mm 0.00 in/hr0.0 mm/hr 0.00 in0.0 mm
05:30 PM 37.0°F2.8°C 24.0°F-4.4°C 59% Calm Calm -- 30.30 in1026.1 mb 0.00 in0.0 mm 0.00 in/hr0.0 mm/hr 0.00 in0.0 mm
05:15 PM 37.6°F3.1°C 24.1°F-4.4°C 58% 1.2 mph NNE1.9 kmh NNE 4.6 mph7.4 kmh 30.31 in1026.4 mb 0.00 in0.0 mm 0.00 in/hr0.0 mm/hr 0.00 in0.0 mm
05:00 PM 37.5°F3.1°C 24.1°F-4.4°C 58% Calm Calm -- 30.31 in1026.4 mb 0.00 in0.0 mm 0.00 in/hr0.0 mm/hr 0.00 in0.0 mm
04:45 PM 38.6°F3.7°C 23.4°F-4.8°C 54% Calm Calm -- 30.29 in1025.7 mb 0.00 in0.0 mm 0.00 in/hr0.0 mm/hr 0.00 in0.0 mm
04:30 PM 39.2°F4.0°C 23.5°F-4.7°C 53% Calm Calm 1.2 mph1.9 kmh 30.29 in1025.7 mb 0.00 in0.0 mm 0.00 in/hr0.0 mm/hr 0.00 in0.0 mm
04:15 PM 40.3°F4.6°C 24.0°F-4.4°C 52% Calm Calm -- 30.27 in1025.1 mb 0.00 in0.0 mm 0.00 in/hr0.0 mm/hr 0.00 in0.0 mm
04:00 PM 40.4°F4.7°C 24.1°F-4.4°C 52% 2.3 mph NNE3.7 kmh NNE 4.6 mph7.4 kmh 30.27 in1025.1 mb 0.00 in0.0 mm 0.00 in/hr0.0 mm/hr 0.00 in0.0 mm
03:45 PM 40.6°F4.8°C 24.3°F-4.3°C 52% Calm Calm -- 30.27 in1025.1 mb 0.00 in0.0 mm 0.00 in/hr0.0 mm/hr 0.00 in0.0 mm
03:30 PM 40.9°F4.9°C 24.1°F-4.4°C 51% Calm Calm -- 30.27 in1025.1 mb 0.00 in0.0 mm 0.00 in/hr0.0 mm/hr 0.00 in0.0 mm
03:15 PM 41.7°F5.4°C 23.9°F-4.5°C 49% Calm Calm -- 30.27 in1025.1 mb 0.00 in0.0 mm 0.00 in/hr0.0 mm/hr 0.00 in0.0 mm
03:00 PM 41.2°F5.1°C 23.4°F-4.8°C 49% Calm Calm -- 30.27 in1025.1 mb 0.00 in0.0 mm 0.00 in/hr0.0 mm/hr 0.00 in0.0 mm
02:45 PM 41.3°F5.2°C 23.6°F-4.7°C 49% Calm Calm -- 30.28 in1025.4 mb 0.00 in0.0 mm 0.00 in/hr0.0 mm/hr 0.00 in0.0 mm
02:30 PM 40.6°F4.8°C 23.9°F-4.5°C 51% Calm Calm -- 30.27 in1025.1 mb 0.00 in0.0 mm 0.00 in/hr0.0 mm/hr 0.00 in0.0 mm
02:15 PM 40.7°F4.8°C 23.5°F-4.7°C 50% 1.2 mph WNW1.9 kmh WNW 3.5 mph5.6 kmh 30.28 in1025.4 mb 0.00 in0.0 mm 0.00 in/hr0.0 mm/hr 0.00 in0.0 mm
02:00 PM 40.9°F4.9°C 23.2°F-4.9°C 49% Calm Calm -- 30.29 in1025.7 mb 0.00 in0.0 mm 0.00 in/hr0.0 mm/hr 0.00 in0.0 mm
01:45 PM 40.5°F4.7°C 23.3°F-4.8°C 50% Calm Calm 1.2 mph1.9 kmh 30.29 in1025.7 mb 0.00 in0.0 mm 0.00 in/hr0.0 mm/hr 0.00 in0.0 mm
01:30 PM 40.0°F4.4°C 23.3°F-4.8°C 51% 3.5 mph WNW5.6 kmh WNW 4.6 mph7.4 kmh 30.30 in1026.1 mb 0.00 in0.0 mm 0.00 in/hr0.0 mm/hr 0.00 in0.0 mm
01:15 PM 39.8°F4.3°C 24.5°F-4.2°C 54% 2.3 mph WNW3.7 kmh WNW 5.8 mph9.3 kmh 30.30 in1026.1 mb 0.00 in0.0 mm 0.00 in/hr0.0 mm/hr 0.00 in0.0 mm
01:00 PM 39.5°F4.2°C 23.3°F-4.8°C 52% Calm Calm 3.5 mph5.6 kmh 30.30 in1026.1 mb 0.00 in0.0 mm 0.00 in/hr0.0 mm/hr 0.00 in0.0 mm
12:45 PM 38.7°F3.7°C 23.5°F-4.7°C 54% 1.2 mph WSW1.9 kmh WSW 3.5 mph5.6 kmh 30.31 in1026.4 mb 0.00 in0.0 mm 0.00 in/hr0.0 mm/hr 0.00 in0.0 mm
12:30 PM 37.4°F3.0°C 23.5°F-4.7°C 57% 4.6 mph W7.4 kmh W 5.8 mph9.3 kmh 30.32 in1026.8 mb 0.00 in0.0 mm 0.00 in/hr0.0 mm/hr 0.00 in0.0 mm
12:15 PM 36.2°F2.3°C 22.8°F-5.1°C 58% 2.3 mph WNW3.7 kmh WNW 6.9 mph11.1 kmh 30.33 in1027.1 mb 0.00 in0.0 mm 0.00 in/hr0.0 mm/hr 0.00 in0.0 mm
12:00 PM 36.2°F2.3°C 23.2°F-4.9°C 59% Calm Calm -- 30.33 in1027.1 mb 0.00 in0.0 mm 0.00 in/hr0.0 mm/hr 0.00 in0.0 mm
11:45 AM 36.6°F2.6°C 23.6°F-4.7°C 59% Calm Calm 1.2 mph1.9 kmh 30.34 in1027.4 mb 0.00 in0.0 mm 0.00 in/hr0.0 mm/hr 0.00 in0.0 mm
11:30 AM 36.2°F2.3°C 23.6°F-4.7°C 60% Calm Calm -- 30.34 in1027.4 mb 0.00 in0.0 mm 0.00 in/hr0.0 mm/hr 0.00 in0.0 mm
11:15 AM 35.8°F2.1°C 23.7°F-4.6°C 61% 2.3 mph NW3.7 kmh NW 2.3 mph3.7 kmh 30.34 in1027.4 mb 0.00 in0.0 mm 0.00 in/hr0.0 mm/hr 0.00 in0.0 mm
11:00 AM 35.6°F2.0°C 23.8°F-4.6°C 62% 2.3 mph NW3.7 kmh NW 3.5 mph5.6 kmh 30.35 in1027.8 mb 0.00 in0.0 mm 0.00 in/hr0.0 mm/hr 0.00 in0.0 mm
10:45 AM 35.2°F1.8°C 23.5°F-4.7°C 62% Calm Calm -- 30.35 in1027.8 mb 0.00 in0.0 mm 0.00 in/hr0.0 mm/hr 0.00 in0.0 mm
10:30 AM 35.0°F1.7°C 22.9°F-5.1°C 61% Calm Calm -- 30.36 in1028.1 mb 0.00 in0.0 mm 0.00 in/hr0.0 mm/hr 0.00 in0.0 mm
10:15 AM 34.7°F1.5°C 23.0°F-5.0°C 62% Calm Calm -- 30.36 in1028.1 mb 0.00 in0.0 mm 0.00 in/hr0.0 mm/hr 0.00 in0.0 mm
10:00 AM 34.4°F1.3°C 22.3°F-5.4°C 61% Calm Calm 2.3 mph3.7 kmh 30.36 in1028.1 mb 0.00 in0.0 mm 0.00 in/hr0.0 mm/hr 0.00 in0.0 mm
09:45 AM 34.3°F1.3°C 22.6°F-5.2°C 62% Calm Calm 1.2 mph1.9 kmh 30.36 in1028.1 mb 0.00 in0.0 mm 0.00 in/hr0.0 mm/hr 0.00 in0.0 mm
09:30 AM 34.0°F1.1°C 22.7°F-5.2°C 63% Calm Calm -- 30.36 in1028.1 mb 0.00 in0.0 mm 0.00 in/hr0.0 mm/hr 0.00 in0.0 mm
09:15 AM 33.7°F0.9°C 23.2°F-4.9°C 65% Calm Calm -- 30.36 in1028.1 mb 0.00 in0.0 mm 0.00 in/hr0.0 mm/hr 0.00 in0.0 mm
09:00 AM 33.5°F0.8°C 22.6°F-5.2°C 64% Calm Calm -- 30.35 in1027.8 mb 0.00 in0.0 mm 0.00 in/hr0.0 mm/hr 0.00 in0.0 mm
08:45 AM 33.3°F0.7°C 22.4°F-5.3°C 64% 1.2 mph NE1.9 kmh NE 2.3 mph3.7 kmh 30.34 in1027.4 mb 0.00 in0.0 mm 0.00 in/hr0.0 mm/hr 0.00 in0.0 mm
08:30 AM 33.2°F0.7°C 22.3°F-5.4°C 64% Calm Calm -- 30.34 in1027.4 mb 0.00 in0.0 mm 0.00 in/hr0.0 mm/hr 0.00 in0.0 mm
08:15 AM 33.1°F0.6°C 22.6°F-5.2°C 65% Calm Calm -- 30.33 in1027.1 mb 0.00 in0.0 mm 0.00 in/hr0.0 mm/hr 0.00 in0.0 mm
08:00 AM 33.0°F0.6°C 22.5°F-5.3°C 65% 1.2 mph NE1.9 kmh NE 3.5 mph5.6 kmh 30.33 in1027.1 mb 0.00 in0.0 mm 0.00 in/hr0.0 mm/hr 0.00 in0.0 mm
07:45 AM 33.0°F0.6°C 22.9°F-5.1°C 66% Calm Calm -- 30.33 in1027.1 mb 0.00 in0.0 mm 0.00 in/hr0.0 mm/hr 0.00 in0.0 mm
07:30 AM 33.0°F0.6°C 22.5°F-5.3°C 65% Calm Calm -- 30.33 in1027.1 mb 0.00 in0.0 mm 0.00 in/hr0.0 mm/hr 0.00 in0.0 mm
07:15 AM 33.0°F0.6°C 22.9°F-5.1°C 66% Calm Calm -- 30.33 in1027.1 mb 0.00 in0.0 mm 0.00 in/hr0.0 mm/hr 0.00 in0.0 mm
07:00 AM 32.9°F0.5°C 22.7°F-5.2°C 66% Calm Calm -- 30.33 in1027.1 mb 0.00 in0.0 mm 0.00 in/hr0.0 mm/hr 0.00 in0.0 mm
06:45 AM 32.8°F0.4°C 22.7°F-5.2°C 66% Calm Calm -- 30.33 in1027.1 mb 0.00 in0.0 mm 0.00 in/hr0.0 mm/hr 0.00 in0.0 mm
06:30 AM 32.7°F0.4°C 22.6°F-5.2°C 66% Calm Calm -- 30.32 in1026.8 mb 0.00 in0.0 mm 0.00 in/hr0.0 mm/hr 0.00 in0.0 mm
06:15 AM 32.7°F0.4°C 22.9°F-5.1°C 67% Calm Calm -- 30.32 in1026.8 mb 0.00 in0.0 mm 0.00 in/hr0.0 mm/hr 0.00 in0.0 mm
06:00 AM 32.6°F0.3°C 22.5°F-5.3°C 66% 1.2 mph NE1.9 kmh NE -- 30.32 in1026.8 mb 0.00 in0.0 mm 0.00 in/hr0.0 mm/hr 0.00 in0.0 mm
05:45 AM 32.6°F0.3°C 22.8°F-5.1°C 67% Calm Calm -- 30.31 in1026.4 mb 0.00 in0.0 mm 0.00 in/hr0.0 mm/hr 0.00 in0.0 mm
05:30 AM 32.5°F0.3°C 22.8°F-5.1°C 67% Calm Calm -- 30.31 in1026.4 mb 0.00 in0.0 mm 0.00 in/hr0.0 mm/hr 0.00 in0.0 mm
05:15 AM 32.5°F0.3°C 22.8°F-5.1°C 67% 2.3 mph NE3.7 kmh NE 1.2 mph1.9 kmh 30.30 in1026.1 mb 0.00 in0.0 mm 0.00 in/hr0.0 mm/hr 0.00 in0.0 mm
05:00 AM 32.5°F0.3°C 23.1°F-4.9°C 68% Calm Calm -- 30.30 in1026.1 mb 0.00 in0.0 mm 0.00 in/hr0.0 mm/hr 0.00 in0.0 mm
04:45 AM 32.4°F0.2°C 23.0°F-5.0°C 68% 1.2 mph NE1.9 kmh NE 3.5 mph5.6 kmh 30.30 in1026.1 mb 0.00 in0.0 mm 0.00 in/hr0.0 mm/hr 0.00 in0.0 mm
04:30 AM 32.4°F0.2°C 23.0°F-5.0°C 68% 1.2 mph NE1.9 kmh NE 1.2 mph1.9 kmh 30.30 in1026.1 mb 0.00 in0.0 mm 0.00 in/hr0.0 mm/hr 0.00 in0.0 mm
04:15 AM 32.4°F0.2°C 23.4°F-4.8°C 69% Calm Calm 2.3 mph3.7 kmh 30.30 in1026.1 mb 0.00 in0.0 mm 0.00 in/hr0.0 mm/hr 0.00 in0.0 mm
04:00 AM 32.3°F0.2°C 22.9°F-5.1°C 68% Calm Calm -- 30.30 in1026.1 mb 0.00 in0.0 mm 0.00 in/hr0.0 mm/hr 0.00 in0.0 mm
03:45 AM 32.2°F0.1°C 23.2°F-4.9°C 69% Calm Calm -- 30.30 in1026.1 mb 0.00 in0.0 mm 0.00 in/hr0.0 mm/hr 0.00 in0.0 mm
03:30 AM 32.1°F0.1°C 23.4°F-4.8°C 70% Calm Calm -- 30.30 in1026.1 mb 0.00 in0.0 mm 0.00 in/hr0.0 mm/hr 0.00 in0.0 mm
03:15 AM 31.9°F-0.1°C 23.2°F-4.9°C 70% Calm Calm -- 30.30 in1026.1 mb 0.00 in0.0 mm 0.00 in/hr0.0 mm/hr 0.00 in0.0 mm
03:00 AM 31.8°F-0.1°C 23.1°F-4.9°C 70% Calm Calm -- 30.31 in1026.4 mb 0.00 in0.0 mm 0.00 in/hr0.0 mm/hr 0.00 in0.0 mm
02:45 AM 31.6°F-0.2°C 22.9°F-5.1°C 70% Calm Calm -- 30.30 in1026.1 mb 0.00 in0.0 mm 0.00 in/hr0.0 mm/hr 0.00 in0.0 mm
02:30 AM 31.4°F-0.3°C 23.1°F-4.9°C 71% Calm Calm -- 30.30 in1026.1 mb 0.00 in0.0 mm 0.00 in/hr0.0 mm/hr 0.00 in0.0 mm
02:15 AM 31.2°F-0.4°C 23.2°F-4.9°C 72% Calm Calm -- 30.30 in1026.1 mb 0.00 in0.0 mm 0.00 in/hr0.0 mm/hr 0.00 in0.0 mm
02:00 AM 30.8°F-0.7°C 23.5°F-4.7°C 74% Calm Calm -- 30.30 in1026.1 mb 0.00 in0.0 mm 0.00 in/hr0.0 mm/hr 0.00 in0.0 mm
01:45 AM 30.5°F-0.8°C 23.5°F-4.7°C 75% Calm Calm -- 30.29 in1025.7 mb 0.00 in0.0 mm 0.00 in/hr0.0 mm/hr 0.00 in0.0 mm
01:30 AM 30.3°F-0.9°C 23.6°F-4.7°C 76% Calm Calm -- 30.29 in1025.7 mb 0.00 in0.0 mm 0.00 in/hr0.0 mm/hr 0.00 in0.0 mm
01:15 AM 30.0°F-1.1°C 22.7°F-5.2°C 74% Calm Calm -- 30.29 in1025.7 mb 0.00 in0.0 mm 0.00 in/hr0.0 mm/hr 0.00 in0.0 mm
01:00 AM 30.0°F-1.1°C 22.7°F-5.2°C 74% Calm Calm -- 30.29 in1025.7 mb 0.00 in0.0 mm 0.00 in/hr0.0 mm/hr 0.00 in0.0 mm
12:45 AM 30.0°F-1.1°C 22.7°F-5.2°C 74% Calm Calm -- 30.29 in1025.7 mb 0.00 in0.0 mm 0.00 in/hr0.0 mm/hr 0.00 in0.0 mm
12:30 AM 30.4°F-0.9°C 22.2°F-5.4°C 71% Calm Calm -- 30.29 in1025.7 mb 0.00 in0.0 mm 0.00 in/hr0.0 mm/hr 0.00 in0.0 mm
12:15 AM 31.0°F-0.6°C 22.4°F-5.3°C 70% Calm Calm -- 30.29 in1025.7 mb 0.00 in0.0 mm 0.00 in/hr0.0 mm/hr 0.00 in0.0 mm
12:01 AM 31.3°F-0.4°C 22.6°F-5.2°C 70% Calm Calm -- 30.29 in1025.7 mb 0.00 in0.0 mm 0.00 in/hr0.0 mm/hr 0.00 in0.0 mm